Time;durP1;ratioP1;P1;durP2;ratioP2;P2;SDS_P1;SDS_P2;PMS_P1;PMS_P2;Temp;Humidity;BMP_temperature;BMP_pressure;BME280_temperature;BME280_humidity;BME280_pressure;Samples;Min_cycle;Max_cycle;Signal;HPM_P1;HPM_P2
2022/04/28 00:02:15;;;;;;;37.22;24.42;;;358.50;2329.60;;;;;;4969533;28;20114;-81
2022/04/28 00:04:41;;;;;;;35.10;23.13;;;358.50;2329.60;;;;;;4950440;28;20035;-80
2022/04/28 00:07:07;;;;;;;31.30;22.35;;;358.50;2329.60;;;;;;4955784;28;20524;-80
2022/04/28 00:09:32;;;;;;;34.20;22.67;;;358.50;2329.60;;;;;;4973062;28;20022;-80
2022/04/28 00:12:00;;;;;;;35.70;22.92;;;358.50;2329.60;;;;;;4973155;28;20468;-80
2022/04/28 00:14:26;;;;;;;35.33;23.17;;;358.50;2329.60;;;;;;4955922;28;20029;-80
2022/04/28 00:16:51;;;;;;;35.25;23.58;;;358.50;2329.60;;;;;;4955878;28;20027;-80
2022/04/28 00:19:17;;;;;;;33.13;22.45;;;358.50;2329.60;;;;;;4955706;28;20432;-80
2022/04/28 00:21:43;;;;;;;33.33;23.52;;;358.50;2329.60;;;;;;4955367;28;20042;-80
2022/04/28 00:24:08;;;;;;;35.28;23.70;;;358.50;2329.60;;;;;;4955278;28;20491;-80
2022/04/28 00:26:34;;;;;;;30.67;21.90;;;358.60;2329.60;;;;;;4955645;28;20054;-80
2022/04/28 00:29:00;;;;;;;36.20;22.20;;;358.50;2329.60;;;;;;4955380;28;20497;-80
2022/04/28 00:31:25;;;;;;;31.77;22.35;;;358.50;2329.60;;;;;;4955531;28;20396;-79
2022/04/28 00:33:51;;;;;;;35.20;23.60;;;358.50;2329.60;;;;;;4955617;28;20019;-81
2022/04/28 00:36:17;;;;;;;34.45;22.80;;;358.50;2329.60;;;;;;4955480;28;20031;-80
2022/04/28 00:38:43;;;;;;;32.22;21.52;;;358.40;2329.60;;;;;;4955575;28;20019;-80
2022/04/28 00:41:09;;;;;;;29.05;20.95;;;358.40;2329.60;;;;;;4956006;28;20042;-81
2022/04/28 00:43:49;;;;;;;33.95;21.92;;;358.40;2329.60;;;;;;4957517;28;20499;-80
2022/04/28 00:46:14;;;;;;;30.50;21.13;;;358.40;2329.60;;;;;;4958688;28;20057;-80
2022/04/28 00:51:26;;;;;;;30.88;20.92;;;333.70;2329.60;;;;;;4974528;28;20085;-81
2022/04/28 00:53:53;;;;;;;33.88;20.20;;;333.60;2329.60;;;;;;4959096;28;20114;-81
2022/04/28 00:56:19;;;;;;;30.73;19.48;;;333.60;2329.60;;;;;;4956105;28;20023;-80
2022/04/28 00:58:48;;;;;;;29.23;20.23;;;333.60;2329.60;;;;;;4958248;28;20097;-79
2022/04/28 01:01:13;;;;;;;33.92;21.38;;;333.60;2329.60;;;;;;4976441;28;20145;-81
2022/04/28 01:03:39;;;;;;;30.90;20.52;;;333.60;2329.60;;;;;;4955948;28;20061;-80
2022/04/28 01:06:05;;;;;;;30.85;20.83;;;333.60;2329.60;;;;;;4975686;28;20054;-79
2022/04/28 01:08:31;;;;;;;31.08;19.55;;;333.60;2329.60;;;;;;4958406;28;20026;-79
2022/04/28 01:10:57;;;;;;;28.17;18.90;;;333.60;2329.60;;;;;;4958484;28;20027;-80
2022/04/28 01:13:23;;;;;;;22.70;17.15;;;333.60;2329.60;;;;;;4958402;28;20058;-79
2022/04/28 01:15:50;;;;;;;25.17;17.60;;;333.60;2329.60;;;;;;4958229;28;20034;-80
2022/04/28 01:18:17;;;;;;;28.42;19.15;;;333.50;2329.60;;;;;;4958317;28;20015;-79
2022/04/28 01:20:43;;;;;;;28.17;18.30;;;333.50;2329.60;;;;;;4976170;28;20027;-81
2022/04/28 01:23:11;;;;;;;26.92;18.98;;;333.50;2329.60;;;;;;4974863;28;20432;-81
2022/04/28 01:25:37;;;;;;;27.02;19.58;;;333.40;2329.60;;;;;;4958165;28;20481;-81
2022/04/28 01:28:02;;;;;;;26.75;17.73;;;333.40;2329.60;;;;;;4958391;28;20026;-79
2022/04/28 01:30:28;;;;;;;28.40;19.25;;;333.40;2329.60;;;;;;4957638;28;20039;-81
2022/04/28 01:32:58;;;;;;;28.08;18.23;;;333.30;2329.60;;;;;;4958161;28;20532;-81
2022/04/28 01:35:25;;;;;;;26.77;17.52;;;333.20;2329.60;;;;;;4973373;28;20034;-80
2022/04/28 01:37:52;;;;;;;27.02;18.23;;;333.20;2329.60;;;;;;4957239;28;20106;-80
2022/04/28 01:40:19;;;;;;;27.15;17.90;;;333.20;2329.60;;;;;;4958122;28;20027;-80
2022/04/28 01:42:46;;;;;;;27.60;18.20;;;333.20;2329.60;;;;;;4975729;28;20490;-81
2022/04/28 01:45:12;;;;;;;25.42;17.63;;;333.10;2329.60;;;;;;4957904;28;20035;-81
2022/04/28 01:47:39;;;;;;;29.67;18.98;;;333.10;2329.60;;;;;;4957591;28;20022;-80
2022/04/28 01:50:06;;;;;;;25.13;17.33;;;333.10;2329.60;;;;;;4957868;28;20033;-80
2022/04/28 01:55:16;;;;;;;25.40;16.52;;;333.10;2329.60;;;;;;4974073;28;20457;-81
2022/04/28 01:57:43;;;;;;;29.58;17.00;;;333.00;2329.60;;;;;;4957797;28;20110;-81
2022/04/28 02:00:09;;;;;;;22.95;16.02;;;333.00;2329.60;;;;;;4957697;28;20047;-81
2022/04/28 02:02:35;;;;;;;23.40;16.05;;;333.00;2329.60;;;;;;4974943;28;20027;-80
2022/04/28 02:05:05;;;;;;;23.98;16.42;;;332.90;2329.60;;;;;;4957369;28;20037;-81
2022/04/28 02:07:31;;;;;;;23.63;16.60;;;332.90;2329.60;;;;;;4957922;28;20027;-81
2022/04/28 02:09:58;;;;;;;25.55;18.10;;;332.90;2329.60;;;;;;4954997;28;20038;-81
2022/04/28 02:12:25;;;;;;;22.33;15.75;;;332.90;2329.60;;;;;;4972600;28;20027;-81
2022/04/28 02:14:51;;;;;;;24.13;16.77;;;332.90;2329.60;;;;;;4974590;28;20031;-81
2022/04/28 02:17:21;;;;;;;23.60;16.75;;;333.00;2329.60;;;;;;4957392;28;20023;-81
2022/04/28 02:19:48;;;;;;;25.83;17.02;;;332.90;2329.60;;;;;;4971208;28;20049;-81
2022/04/28 02:22:14;;;;;;;23.40;15.40;;;332.90;2329.60;;;;;;4974884;28;20026;-81
2022/04/28 02:24:40;;;;;;;20.95;15.40;;;332.90;2329.60;;;;;;4956659;28;20034;-81
2022/04/28 02:27:06;;;;;;;29.45;16.83;;;332.90;2329.60;;;;;;4957411;28;20046;-81
2022/04/28 02:29:32;;;;;;;23.92;15.95;;;332.90;2329.60;;;;;;4957066;28;20031;-81
2022/04/28 02:31:58;;;;;;;25.42;15.68;;;332.90;2329.60;;;;;;4974442;28;20027;-80
2022/04/28 02:34:23;;;;;;;25.00;16.52;;;332.90;2329.60;;;;;;4954791;28;20030;-81
2022/04/28 02:36:49;;;;;;;22.23;14.82;;;332.90;2329.60;;;;;;4974478;28;20026;-80
2022/04/28 02:39:17;;;;;;;26.02;17.13;;;332.90;2329.60;;;;;;4974616;28;20019;-82
2022/04/28 02:41:43;;;;;;;24.30;15.50;;;332.90;2329.60;;;;;;4957338;28;20361;-81
2022/04/28 02:44:10;;;;;;;26.23;16.02;;;332.90;2329.60;;;;;;4957145;28;20019;-81
2022/04/28 02:46:36;;;;;;;22.90;15.00;;;332.90;2329.60;;;;;;4957121;28;20489;-81
2022/04/28 02:49:02;;;;;;;22.55;15.15;;;332.90;2329.60;;;;;;4957207;28;20023;-81
2022/04/28 02:51:28;;;;;;;25.50;16.55;;;332.90;2329.60;;;;;;4974200;28;20094;-81
2022/04/28 02:53:53;;;;;;;25.23;15.98;;;332.90;2329.60;;;;;;4956530;28;20058;-81
2022/04/28 02:56:19;;;;;;;21.08;15.80;;;332.90;2329.60;;;;;;4957060;28;20069;-81
2022/04/28 02:58:45;;;;;;;25.60;16.50;;;332.90;2329.60;;;;;;4955005;28;20492;-80
2022/04/28 03:01:11;;;;;;;21.70;14.50;;;332.90;2329.60;;;;;;4956561;28;20027;-81
2022/04/28 03:03:37;;;;;;;22.30;14.82;;;332.90;2329.60;;;;;;4956203;28;20125;-81
2022/04/28 03:11:31;;;;;;;25.33;15.50;;;332.90;2329.60;;;;;;4973642;28;20029;-80
2022/04/28 03:13:57;;;;;;;23.58;15.75;;;332.90;2329.60;;;;;;4956217;28;20027;-80
2022/04/28 03:16:24;;;;;;;21.13;15.18;;;332.90;2329.60;;;;;;4973008;28;20027;-80
2022/04/28 03:18:50;;;;;;;22.75;14.75;;;332.90;2329.60;;;;;;4956047;28;20078;-81
2022/04/28 03:21:15;;;;;;;19.50;14.05;;;332.90;2329.60;;;;;;4955656;28;20039;-81
2022/04/28 03:23:41;;;;;;;20.60;14.30;;;332.90;2329.60;;;;;;4956287;28;20042;-81
2022/04/28 03:26:07;;;;;;;27.98;15.90;;;332.90;2329.60;;;;;;4973374;28;20062;-80
2022/04/28 03:28:35;;;;;;;23.55;16.55;;;332.90;2329.60;;;;;;4955906;28;20023;-81
2022/04/28 03:31:05;;;;;;;21.92;15.90;;;332.90;2329.60;;;;;;4956340;28;20491;-80
2022/04/28 03:33:31;;;;;;;24.10;15.25;;;332.90;2329.60;;;;;;4971238;28;20440;-80
2022/04/28 03:35:57;;;;;;;25.77;15.98;;;332.90;2329.60;;;;;;4972953;28;20082;-80
2022/04/28 03:38:23;;;;;;;22.55;15.05;;;332.80;2329.60;;;;;;4972415;28;20023;-81
2022/04/28 03:40:48;;;;;;;22.30;15.82;;;308.10;2304.00;;;;;;4956048;28;20031;-81
2022/04/28 03:43:14;;;;;;;22.35;15.95;;;308.10;2304.00;;;;;;4955545;28;20031;-81
2022/04/28 03:45:41;;;;;;;22.92;15.27;;;308.10;2304.00;;;;;;4973241;28;20515;-81
2022/04/28 03:48:09;;;;;;;21.38;14.88;;;308.10;2304.00;;;;;;4972878;28;20047;-81
2022/04/28 03:50:39;;;;;;;21.30;15.50;;;308.10;2304.00;;;;;;4955801;28;20029;-82
2022/04/28 03:53:05;;;;;;;27.85;16.42;;;308.10;2304.00;;;;;;4956080;28;20122;-81
2022/04/28 03:55:31;;;;;;;22.15;15.82;;;308.10;2304.00;;;;;;4955621;28;20110;-83
2022/04/28 03:57:57;;;;;;;22.17;15.85;;;308.10;2304.00;;;;;;4955887;28;20114;-83
2022/04/28 04:00:23;;;;;;;24.92;16.08;;;308.10;2304.00;;;;;;4962442;28;20474;-80
2022/04/28 04:02:49;;;;;;;23.42;15.98;;;308.10;2304.00;;;;;;4947314;28;20105;-82
2022/04/28 04:05:15;;;;;;;21.73;15.65;;;308.10;2304.00;;;;;;4945032;28;20039;-81
2022/04/28 04:07:42;;;;;;;26.67;15.93;;;308.00;2304.00;;;;;;4962784;28;20465;-80
2022/04/28 04:10:13;;;;;;;21.55;15.07;;;308.10;2304.00;;;;;;4953778;28;20568;-81
2022/04/28 04:12:39;;;;;;;25.88;16.10;;;308.10;2304.00;;;;;;4963328;28;20106;-82
2022/04/28 04:15:06;;;;;;;22.80;16.20;;;308.10;2304.00;;;;;;4945387;28;20053;-81
2022/04/28 04:17:41;;;;;;;26.75;16.73;;;332.80;2329.60;;;;;;4946044;28;20462;-81
2022/04/28 04:20:08;;;;;;;23.27;15.70;;;332.80;2329.60;;;;;;4951326;28;20043;-81
2022/04/28 04:22:33;;;;;;;23.02;15.80;;;332.90;2329.60;;;;;;4949797;28;20023;-81
2022/04/28 04:24:59;;;;;;;25.50;17.63;;;332.90;2329.60;;;;;;4949377;28;20041;-81
2022/04/28 04:27:25;;;;;;;27.25;16.48;;;332.90;2329.60;;;;;;4950664;28;20473;-81
2022/04/28 04:29:51;;;;;;;25.27;16.33;;;332.80;2329.60;;;;;;4938073;29;20389;-80
2022/04/28 04:32:20;;;;;;;24.55;17.10;;;332.90;2329.60;;;;;;4949988;28;20023;-82
2022/04/28 04:34:48;;;;;;;20.52;15.48;;;332.90;2329.60;;;;;;4948493;28;20036;-80
2022/04/28 04:37:14;;;;;;;23.70;15.82;;;332.80;2329.60;;;;;;4949884;28;20061;-80
2022/04/28 04:39:40;;;;;;;21.88;15.57;;;332.80;2329.60;;;;;;4947284;29;20551;-80
2022/04/28 04:42:07;;;;;;;25.00;17.13;;;332.80;2329.60;;;;;;4950405;28;20035;-81
2022/04/28 04:44:33;;;;;;;24.67;15.98;;;308.10;2304.00;;;;;;4948731;28;20366;-81
2022/04/28 04:46:59;;;;;;;24.83;17.00;;;332.80;2329.60;;;;;;4949159;28;20073;-80
2022/04/28 04:49:25;;;;;;;23.55;17.10;;;332.80;2329.60;;;;;;4947707;28;20389;-79
2022/04/28 04:51:51;;;;;;;25.65;16.98;;;332.80;2329.60;;;;;;4950137;28;20027;-80
2022/04/28 04:54:17;;;;;;;25.48;16.35;;;332.80;2329.60;;;;;;4949442;28;20462;-80
2022/04/28 04:56:42;;;;;;;25.73;17.85;;;332.80;2329.60;;;;;;4948378;28;20030;-81
2022/04/28 04:59:09;;;;;;;26.23;16.08;;;332.90;2329.60;;;;;;4952393;28;20539;-81
2022/04/28 05:01:34;;;;;;;27.92;18.42;;;332.90;2329.60;;;;;;4958849;28;20018;-79
2022/04/28 05:04:00;;;;;;;25.40;16.85;;;332.90;2329.60;;;;;;4959647;28;20519;-92
2022/04/28 05:06:26;;;;;;;24.85;18.23;;;332.90;2329.60;;;;;;4958785;28;20047;-84
2022/04/28 05:08:52;;;;;;;25.58;18.30;;;332.90;2329.60;;;;;;4959059;28;20118;-82
2022/04/28 05:11:18;;;;;;;30.60;18.98;;;332.90;2329.60;;;;;;4976857;28;20440;-91
2022/04/28 05:13:44;;;;;;;24.23;17.23;;;332.90;2329.60;;;;;;4959601;28;20078;-87
2022/04/28 05:16:10;;;;;;;39.58;18.65;;;332.90;2329.60;;;;;;4959345;28;20019;-86
2022/04/28 05:18:36;;;;;;;28.52;18.92;;;333.00;2329.60;;;;;;4959603;28;20113;-87
2022/04/28 05:21:03;;;;;;;25.40;18.75;;;333.00;2329.60;;;;;;4959237;28;20023;-87
2022/04/28 05:23:29;;;;;;;29.40;19.58;;;333.00;2329.60;;;;;;4959372;28;20020;-88
2022/04/28 05:25:55;;;;;;;25.83;18.20;;;333.10;2329.60;;;;;;4976304;28;20044;-93
2022/04/28 05:28:22;;;;;;;28.63;19.92;;;333.10;2329.60;;;;;;4958363;28;20035;-88
2022/04/28 05:30:47;;;;;;;31.63;18.85;;;333.20;2329.60;;;;;;4959102;28;20023;-87
2022/04/28 05:33:13;;;;;;;29.33;18.02;;;333.20;2329.60;;;;;;4958891;28;20512;-88
2022/04/28 05:35:41;;;;;;;28.25;19.42;;;333.20;2329.60;;;;;;4959446;28;20504;-87
2022/04/28 05:38:10;;;;;;;26.85;18.75;;;333.10;2329.60;;;;;;4958375;28;20035;-90
2022/04/28 05:40:39;;;;;;;27.98;19.27;;;333.20;2329.60;;;;;;4959236;28;20022;-92
2022/04/28 05:45:51;;;;;;;27.20;19.88;;;333.20;2329.60;;;;;;4976136;28;20502;-89
2022/04/28 05:48:19;;;;;;;30.05;20.73;;;333.20;2329.60;;;;;;4958101;28;20478;-87
2022/04/28 05:50:45;;;;;;;31.52;19.80;;;333.20;2329.60;;;;;;4959022;28;20485;-88
2022/04/28 05:53:11;;;;;;;29.60;20.15;;;333.20;2329.60;;;;;;4958896;28;20031;-84
2022/04/28 05:55:38;;;;;;;30.95;21.38;;;333.10;2329.60;;;;;;4958563;28;20070;-84
2022/04/28 05:58:04;;;;;;;29.90;20.55;;;333.10;2329.60;;;;;;4958387;28;20094;-80
2022/04/28 06:00:31;;;;;;;27.63;19.15;;;333.10;2329.60;;;;;;4957650;28;20051;-83
2022/04/28 06:02:58;;;;;;;39.38;22.05;;;333.10;2329.60;;;;;;4975787;28;20083;-81
2022/04/28 06:05:24;;;;;;;29.83;20.02;;;333.10;2329.60;;;;;;4958288;28;20125;-81
2022/04/28 06:07:51;;;;;;;32.35;20.58;;;333.10;2329.60;;;;;;4958163;28;20018;-82
2022/04/28 06:10:17;;;;;;;33.30;21.98;;;333.10;2329.60;;;;;;4958000;28;20035;-79
2022/04/28 06:12:43;;;;;;;28.42;19.73;;;333.10;2329.60;;;;;;4957927;28;20053;-79
2022/04/28 06:15:10;;;;;;;35.42;21.98;;;333.20;2329.60;;;;;;4952978;28;20027;-83
2022/04/28 06:17:35;;;;;;;31.35;21.35;;;333.20;2329.60;;;;;;4957271;28;20014;-80
2022/04/28 06:20:02;;;;;;;31.92;21.40;;;333.20;2329.60;;;;;;4955019;28;20116;-80
2022/04/28 06:22:28;;;;;;;31.02;22.02;;;333.20;2329.60;;;;;;4958068;28;20085;-80
2022/04/28 06:24:55;;;;;;;35.22;20.33;;;333.30;2329.60;;;;;;4958255;28;20030;-86
2022/04/28 06:27:21;;;;;;;34.83;21.60;;;333.30;2329.60;;;;;;4958337;28;20031;-82
2022/04/28 06:29:48;;;;;;;32.88;21.30;;;333.20;2329.60;;;;;;4952413;29;20114;-81
2022/04/28 06:32:18;;;;;;;34.85;22.38;;;333.20;2329.60;;;;;;4952997;28;20023;-83
2022/04/28 06:34:44;;;;;;;31.85;21.63;;;333.30;2329.60;;;;;;4954388;29;20067;-82
2022/04/28 06:37:10;;;;;;;29.00;21.35;;;333.40;2329.60;;;;;;4956438;28;20031;-83
2022/04/28 06:39:37;;;;;;;32.67;20.38;;;333.40;2329.60;;;;;;4958076;28;20473;-84
2022/04/28 06:42:04;;;;;;;36.38;22.13;;;333.30;2329.60;;;;;;4957759;28;20114;-86
2022/04/28 06:44:30;;;;;;;32.65;21.08;;;333.40;2329.60;;;;;;4958133;28;20034;-84
2022/04/28 06:46:55;;;;;;;33.45;20.95;;;333.40;2329.60;;;;;;4957976;28;20612;-85
2022/04/28 06:49:21;;;;;;;34.15;21.60;;;333.50;2329.60;;;;;;4958304;28;20100;-86
2022/04/28 06:51:47;;;;;;;33.50;22.02;;;333.50;2329.60;;;;;;4957980;28;20042;-88
2022/04/28 06:54:12;;;;;;;30.23;20.52;;;333.70;2329.60;;;;;;4957383;28;20117;-88
2022/04/28 06:56:38;;;;;;;34.92;21.23;;;333.70;2329.60;;;;;;4957535;28;20039;-87
2022/04/28 06:59:04;;;;;;;28.83;20.63;;;333.70;2329.60;;;;;;4957530;28;20043;-91
2022/04/28 07:01:31;;;;;;;30.90;19.48;;;333.60;2329.60;;;;;;4956836;28;20037;-89
2022/04/28 07:03:57;;;;;;;26.77;19.70;;;333.70;2329.60;;;;;;4958112;28;20023;-87
2022/04/28 07:06:22;;;;;;;27.98;19.65;;;333.70;2329.60;;;;;;4956900;28;20089;-88
2022/04/28 07:08:48;;;;;;;31.65;19.80;;;333.70;2329.60;;;;;;4956663;28;20030;-84
2022/04/28 07:11:14;;;;;;;29.48;19.73;;;333.70;2329.60;;;;;;4957707;28;20465;-92
2022/04/28 07:13:40;;;;;;;29.50;19.48;;;333.70;2329.60;;;;;;4957542;28;20027;-91
2022/04/28 07:16:05;;;;;;;34.78;19.40;;;333.70;2329.60;;;;;;4957509;28;20050;-84
2022/04/28 07:18:32;;;;;;;28.25;19.35;;;333.70;2329.60;;;;;;4957273;28;20433;-84
2022/04/28 07:21:01;;;;;;;31.65;21.02;;;333.70;2329.60;;;;;;4957561;28;20059;-84
2022/04/28 07:23:26;;;;;;;28.42;20.20;;;358.40;2329.60;;;;;;4957284;28;20117;-84
2022/04/28 07:25:52;;;;;;;26.35;18.27;;;358.50;2329.60;;;;;;4957244;28;20075;-84
2022/04/28 07:28:18;;;;;;;28.85;19.13;;;358.70;2329.60;;;;;;4957069;28;20220;-83
2022/04/28 07:30:43;;;;;;;30.13;19.33;;;358.60;2329.60;;;;;;4957083;28;20050;-83
2022/04/28 07:33:11;;;;;;;26.95;17.92;;;358.80;2329.60;;;;;;4956363;28;20031;-83
2022/04/28 07:35:37;;;;;;;25.98;18.30;;;358.80;2329.60;;;;;;4957013;28;20031;-83
2022/04/28 07:38:03;;;;;;;25.08;17.52;;;358.80;2329.60;;;;;;4956991;28;20113;-82
2022/04/28 07:40:29;;;;;;;28.85;18.02;;;358.80;2329.60;;;;;;4956910;28;20029;-83
2022/04/28 07:42:55;;;;;;;32.00;18.50;;;358.90;2329.60;;;;;;4957221;28;20481;-83
2022/04/28 07:45:22;;;;;;;22.85;17.38;;;358.90;2329.60;;;;;;4956674;28;20030;-83
2022/04/28 07:47:49;;;;;;;28.55;20.35;;;358.90;2329.60;;;;;;4957050;28;20396;-83
2022/04/28 07:50:16;;;;;;;23.77;17.50;;;358.90;2329.60;;;;;;4956957;28;20053;-84
2022/04/28 07:52:42;;;;;;;26.98;17.70;;;358.90;2329.60;;;;;;4957985;28;20023;-82
2022/04/28 07:55:09;;;;;;;27.05;17.55;;;358.90;2329.60;;;;;;4960354;28;20026;-82
2022/04/28 07:57:35;;;;;;;23.20;16.70;;;358.90;2329.60;;;;;;4960200;28;20448;-81
2022/04/28 08:00:03;;;;;;;24.63;17.75;;;358.90;2329.60;;;;;;4959149;28;20086;-80
2022/04/28 08:02:29;;;;;;;22.15;16.90;;;358.90;2329.60;;;;;;4977331;28;20080;-81
2022/04/28 08:04:55;;;;;;;23.83;16.08;;;358.90;2329.60;;;;;;4960242;28;20043;-80
2022/04/28 08:07:22;;;;;;;26.88;17.75;;;358.90;2329.60;;;;;;4960037;28;20026;-81
2022/04/28 08:09:48;;;;;;;25.70;16.33;;;359.00;2329.60;;;;;;4960110;28;20018;-80
2022/04/28 08:12:14;;;;;;;22.55;16.20;;;358.90;2329.60;;;;;;4959799;28;20023;-82
2022/04/28 08:14:39;;;;;;;22.65;15.65;;;359.00;2329.60;;;;;;4960316;28;20507;-83
2022/04/28 08:17:05;;;;;;;23.55;16.15;;;358.90;2329.60;;;;;;4960068;28;20389;-82
2022/04/28 08:19:32;;;;;;;23.65;17.33;;;358.90;2329.60;;;;;;4960257;28;20534;-82
2022/04/28 08:21:58;;;;;;;24.23;17.60;;;358.90;2329.60;;;;;;4960109;28;20041;-82
2022/04/28 08:24:24;;;;;;;26.70;16.67;;;359.00;2329.60;;;;;;4959901;28;20035;-80
2022/04/28 08:26:51;;;;;;;25.63;16.42;;;358.90;2329.60;;;;;;4972580;28;20105;-81
2022/04/28 08:29:17;;;;;;;22.52;15.57;;;359.00;2329.60;;;;;;4958877;28;20066;-82
2022/04/28 08:31:46;;;;;;;25.35;15.13;;;359.00;2329.60;;;;;;4959492;28;20053;-82
2022/04/28 08:34:13;;;;;;;26.50;16.10;;;359.00;2329.60;;;;;;4956807;28;20030;-80
2022/04/28 08:36:40;;;;;;;21.90;14.88;;;359.00;2329.60;;;;;;4959663;28;20038;-81
2022/04/28 08:39:07;;;;;;;29.42;16.88;;;359.00;2329.60;;;;;;4959128;28;20018;-81
2022/04/28 08:41:37;;;;;;;27.83;16.67;;;359.00;2329.60;;;;;;4959348;28;20030;-79
2022/04/28 08:44:05;;;;;;;25.83;18.05;;;359.00;2329.60;;;;;;4958786;28;20109;-80
2022/04/28 08:46:52;;;;;;;24.83;15.82;;;359.10;2329.60;;;;;;4973982;28;20054;-79
2022/04/28 08:49:22;;;;;;;22.85;15.82;;;359.10;2329.60;;;;;;4959240;28;20026;-78
2022/04/28 08:51:53;;;;;;;24.63;15.88;;;359.00;2329.60;;;;;;4959013;28;20027;-78
2022/04/28 08:54:20;;;;;;;25.65;15.98;;;359.10;2329.60;;;;;;4959146;28;20102;-80
2022/04/28 08:56:46;;;;;;;22.95;15.80;;;359.00;2329.60;;;;;;4976507;28;20031;-86
2022/04/28 08:59:14;;;;;;;25.45;16.70;;;358.90;2329.60;;;;;;4959628;28;20058;-86
2022/04/28 09:01:40;;;;;;;25.83;17.30;;;359.00;2329.60;;;;;;4959625;28;20023;-81
2022/04/28 09:04:07;;;;;;;24.35;16.23;;;358.90;2329.60;;;;;;4958243;28;20058;-80
2022/04/28 09:06:34;;;;;;;26.15;17.42;;;358.90;2329.60;;;;;;4955939;28;20046;-80
2022/04/28 09:09:06;;;;;;;25.33;17.63;;;358.90;2329.60;;;;;;4958115;28;20035;-81
2022/04/28 09:11:40;;;;;;;25.30;17.00;;;359.00;2329.60;;;;;;4958928;28;20077;-84
2022/04/28 09:14:11;;;;;;;27.95;18.60;;;358.90;2329.60;;;;;;4956860;28;20390;-81
2022/04/28 09:16:59;;;;;;;27.70;19.45;;;358.90;2329.60;;;;;;4955843;28;20068;-80
2022/04/28 09:19:34;;;;;;;26.58;16.23;;;358.90;2329.60;;;;;;4962586;28;20121;-81
2022/04/28 09:22:12;;;;;;;29.55;20.90;;;358.90;2329.60;;;;;;4950902;28;20015;-81
2022/04/28 09:24:40;;;;;;;27.50;19.98;;;359.00;2329.60;;;;;;4958021;28;20039;-81
2022/04/28 09:27:08;;;;;;;25.30;17.20;;;358.90;2329.60;;;;;;4967764;28;20042;-80
2022/04/28 09:29:36;;;;;;;28.38;17.08;;;358.90;2329.60;;;;;;4958033;28;20062;-83
2022/04/28 09:32:06;;;;;;;27.70;17.73;;;358.90;2329.60;;;;;;4958183;28;20027;-82
2022/04/28 09:34:32;;;;;;;29.80;19.38;;;358.90;2329.60;;;;;;4955648;28;20392;-80
2022/04/28 09:36:59;;;;;;;27.13;18.13;;;358.80;2329.60;;;;;;4958235;28;20042;-83
2022/04/28 09:42:33;;;;;;;26.55;18.80;;;358.70;2329.60;;;;;;4968600;28;20042;-83
2022/04/28 09:45:01;;;;;;;29.20;17.63;;;358.70;2329.60;;;;;;4966172;28;20171;-83
2022/04/28 09:47:28;;;;;;;31.33;19.48;;;358.70;2329.60;;;;;;4958580;28;20616;-82
2022/04/28 09:49:57;;;;;;;31.23;19.58;;;358.70;2329.60;;;;;;4958687;28;20855;-82
2022/04/28 09:52:26;;;;;;;27.92;19.85;;;358.70;2329.60;;;;;;4958621;28;20488;-81
2022/04/28 09:54:53;;;;;;;24.70;15.32;;;358.70;2329.60;;;;;;4975469;28;20034;-82
2022/04/28 09:57:20;;;;;;;17.17;11.38;;;358.60;2329.60;;;;;;4958327;28;20058;-84
2022/04/28 09:59:58;;;;;;;15.80;10.80;;;358.50;2329.60;;;;;;4943934;29;20051;-83
2022/04/28 10:02:28;;;;;;;16.02;10.88;;;358.50;2329.60;;;;;;4937109;29;20101;-84
2022/04/28 10:04:55;;;;;;;14.45;9.45;;;358.40;2329.60;;;;;;4939488;29;20043;-85
2022/04/28 10:07:22;;;;;;;13.65;9.45;;;358.40;2329.60;;;;;;4939038;29;20481;-81
2022/04/28 10:09:52;;;;;;;13.75;9.50;;;358.40;2329.60;;;;;;4956160;29;20426;-80
2022/04/28 10:12:21;;;;;;;16.80;9.95;;;358.50;2329.60;;;;;;4956253;29;20082;-82
2022/04/28 10:14:48;;;;;;;14.77;9.90;;;358.50;2329.60;;;;;;4955563;28;20034;-81
2022/04/28 10:17:43;;;;;;;14.63;9.98;;;358.50;2329.60;;;;;;4938906;29;20027;-84
2022/04/28 10:20:16;;;;;;;16.23;10.05;;;358.60;2329.60;;;;;;4943417;29;20074;-83
2022/04/28 10:22:43;;;;;;;14.18;9.93;;;358.70;2329.60;;;;;;4938889;29;20547;-84
2022/04/28 10:32:22;;;;;;;28.20;18.30;;;358.80;2329.60;;;;;;4954623;29;20087;-82
2022/04/28 10:34:12;;;;;;;14.43;10.30;;;359.00;2329.60;;;;;;4954875;28;20051;-82
2022/04/28 10:37:03;;;;;;;15.60;10.23;;;359.00;2329.60;;;;;;4937670;29;20027;-82
2022/04/28 10:39:42;;;;;;;16.08;11.30;;;359.00;2329.60;;;;;;4937154;29;20027;-82
2022/04/28 10:42:14;;;;;;;20.52;12.32;;;359.00;2329.60;;;;;;4953832;29;20024;-83
2022/04/28 10:44:54;;;;;;;20.13;13.85;;;359.00;2329.60;;;;;;4955777;29;20493;-83
2022/04/28 10:47:37;;;;;;;21.35;14.23;;;359.00;2329.60;;;;;;4955908;29;20147;-83
2022/04/28 10:50:25;;;;;;;27.73;18.10;;;358.90;2329.60;;;;;;4938770;29;20070;-83
2022/04/28 10:53:05;;;;;;;18.30;11.48;;;358.90;2329.60;;;;;;4938035;29;20039;-82
2022/04/28 10:55:50;;;;;;;16.30;10.98;;;358.90;2329.60;;;;;;4955827;29;20030;-82
2022/04/28 10:58:19;;;;;;;16.63;11.13;;;358.80;2329.60;;;;;;4939250;28;20055;-83
2022/04/28 11:01:00;;;;;;;15.27;10.00;;;358.80;2329.60;;;;;;4940782;29;20035;-82
2022/04/28 11:03:59;;;;;;;12.90;8.85;;;358.80;2329.60;;;;;;4951729;29;20062;-79
2022/04/28 11:06:37;;;;;;;14.70;9.98;;;358.80;2329.60;;;;;;4860457;29;20044;-77
2022/04/28 11:09:04;;;;;;;13.07;8.73;;;358.80;2329.60;;;;;;4861165;29;20033;-79
2022/04/28 11:11:44;;;;;;;12.57;8.98;;;358.80;2329.60;;;;;;4874098;29;20562;-74
2022/04/28 11:14:10;;;;;;;14.20;8.52;;;358.80;2329.60;;;;;;4860689;29;20082;-75
2022/04/28 11:16:36;;;;;;;10.90;7.78;;;358.80;2329.60;;;;;;4860332;29;20049;-75
2022/04/28 11:19:03;;;;;;;20.65;13.90;;;359.00;2329.60;;;;;;4860343;29;20037;-74
2022/04/28 11:21:29;;;;;;;24.73;15.85;;;359.00;2329.60;;;;;;4875402;29;20069;-74
2022/04/28 11:23:56;;;;;;;12.98;9.65;;;359.00;2329.60;;;;;;4857206;29;20065;-77
2022/04/28 11:26:26;;;;;;;12.60;9.52;;;359.00;2329.60;;;;;;4860139;29;20491;-75
2022/04/28 11:28:52;;;;;;;10.50;7.70;;;359.10;2329.60;;;;;;4875585;29;20041;-76
2022/04/28 11:31:19;;;;;;;17.52;12.05;;;359.10;2329.60;;;;;;4859990;29;20130;-75
2022/04/28 11:33:50;;;;;;;15.00;10.13;;;359.00;2329.60;;;;;;4859866;29;20036;-75
2022/04/28 11:36:27;;;;;;;13.38;9.70;;;359.00;2329.60;;;;;;4875643;29;20052;-76
2022/04/28 11:38:56;;;;;;;14.68;9.85;;;359.00;2329.60;;;;;;4875907;29;20113;-77
2022/04/28 11:41:38;;;;;;;15.25;10.48;;;359.10;2329.60;;;;;;4886062;29;20102;-76
2022/04/28 11:44:13;;;;;;;16.10;10.20;;;359.20;2329.60;;;;;;4934317;29;20441;-75
2022/04/28 11:46:42;;;;;;;14.98;10.20;;;359.30;2329.60;;;;;;4935673;29;20043;-75
2022/04/28 11:49:09;;;;;;;13.40;8.50;;;384.00;2329.60;;;;;;4953315;29;20023;-77
2022/04/28 11:51:35;;;;;;;12.65;9.23;;;384.20;2329.60;;;;;;4936864;29;20035;-78
2022/04/28 11:54:03;;;;;;;11.35;8.45;;;384.40;2329.60;;;;;;4936828;29;20122;-76
2022/04/28 11:56:31;;;;;;;16.20;11.23;;;384.40;2329.60;;;;;;4936973;29;20031;-76
2022/04/28 11:59:00;;;;;;;13.63;9.07;;;384.40;2329.60;;;;;;4936359;29;20055;-77
2022/04/28 12:01:31;;;;;;;12.63;9.38;;;384.40;2329.60;;;;;;4936871;29;20034;-76
2022/04/28 12:03:58;;;;;;;11.60;9.43;;;384.40;2329.60;;;;;;4935944;29;20049;-76
2022/04/28 12:06:25;;;;;;;13.68;9.63;;;384.30;2329.60;;;;;;4948725;29;20043;-77
2022/04/28 12:08:53;;;;;;;20.83;11.63;;;384.40;2329.60;;;;;;4935608;29;20019;-77
2022/04/28 12:19:52;;;;;;;20.30;14.35;;;359.20;2329.60;;;;;;4953698;29;20079;-78
2022/04/28 12:22:25;;;;;;;22.35;16.05;;;384.00;2329.60;;;;;;4936017;29;20031;-78
2022/04/28 12:24:51;;;;;;;18.38;13.95;;;384.30;2329.60;;;;;;4953380;29;20397;-76
2022/04/28 12:27:17;;;;;;;21.08;15.20;;;384.30;2329.60;;;;;;4935053;29;20035;-78
2022/04/28 12:29:55;;;;;;;16.17;13.55;;;384.40;2329.60;;;;;;4953146;29;20024;-77
2022/04/28 12:32:22;;;;;;;17.48;13.93;;;384.40;2329.60;;;;;;4933653;29;20039;-77
2022/04/28 12:35:03;;;;;;;17.05;12.13;;;384.30;2329.60;;;;;;4935904;29;20023;-76
2022/04/28 12:37:29;;;;;;;16.40;12.70;;;384.30;2329.60;;;;;;4935848;28;20461;-76